Latest Weather Observations for Nowra

IDN60801

Issued at 11:05 pm EST Saturday 23 August 2014 (issued every 30 minutes, with the page automatically refreshed every 10 minutes)

About weather observations | Map of weather stations | Latest weather observations for NSW | Other Formats
Station Details ID: 068072 Name: NOWRA RAN AIR STATION AWS Lat: -34.95 Lon: 150.54 Height: 109.0 m
Data from the previous 72 hours. | See also: Recent months at Nowra
Date/Time
EST
Temp
°C
App
Temp
°C
Dew
Point
Rel
Hum
%
Delta-T
°C
Wind Press
QNH
hPa
Press
MSL
hPa
Rain
since 9 am
mm
Dir
 
Spd
km/h
Gust
km/h
Spd
kts
Gust
kts
23/11:00pm 9.7 9.7 9.7 100 0.0 WNW 0 0 0 0 1030.1 - 1.0
23/10:30pm 10.3 10.4 10.3 100 0.0 W 0 0 0 0 1030.2 - 1.0
23/10:00pm 10.8 9.4 10.8 100 0.0 W 9 13 5 7 1030.5 - 1.0
23/09:30pm 9.8 8.5 9.8 100 0.0 W 7 9 4 5 1030.7 - 1.0
23/09:00pm 9.8 8.5 9.8 100 0.0 W 7 9 4 5 1030.6 1030.7 1.0
23/08:30pm 9.9 8.6 9.8 99 0.1 SW 7 9 4 5 1030.5 - 1.0
23/08:00pm 10.2 10.3 10.0 99 0.1 CALM 0 0 0 0 1030.5 - 1.0
23/07:30pm 11.3 11.7 11.1 99 0.1 CALM 0 0 0 0 1030.4 - 1.0
23/07:00pm 11.1 11.4 10.9 99 0.1 CALM 0 0 0 0 1030.3 - 1.0
23/06:30pm 12.1 12.5 11.3 95 0.4 CALM 0 0 0 0 1030.2 - 1.0
23/06:00pm 13.3 12.8 11.9 91 0.7 ENE 6 7 3 4 1030.1 1030.2 1.0
23/05:30pm 13.9 12.4 11.8 87 1.1 ENE 11 13 6 7 1029.9 - 1.0
23/05:00pm 14.7 11.8 11.1 79 1.9 ENE 17 20 9 11 1029.5 - 1.0
23/04:30pm 15.6 14.4 11.6 77 2.2 NE 9 13 5 7 1029.2 - 1.0
23/04:20pm 15.7 14.6 12.1 79 2.0 NE 9 13 5 7 1029.2 - 1.0
23/04:06pm 15.4 14.9 12.5 83 1.6 ESE 7 13 4 7 1029.2 - 1.0
23/04:00pm 15.3 14.2 12.1 81 1.7 SE 9 13 5 7 1029.1 - 1.0
23/03:30pm 15.2 13.6 12.9 86 1.3 E 13 17 7 9 1029.0 - 1.0
23/03:17pm 15.6 13.9 12.5 82 1.7 E 13 20 7 11 1028.9 - 1.0
23/03:00pm 15.4 13.9 13.1 86 1.3 E 13 20 7 11 1028.9 1029.0 1.0
23/02:56pm 15.3 13.8 13.0 86 1.3 E 13 20 7 11 1029.0 - 1.0
23/02:30pm 15.2 14.5 13.2 88 1.1 SE 9 13 5 7 1029.0 - 1.0
23/02:20pm 14.6 14.1 12.6 88 1.1 ESE 7 9 4 5 1029.1 - 1.0
23/02:05pm 14.8 12.5 13.0 89 1.0 E 17 22 9 12 1029.3 - 1.0
23/02:00pm 15.7 15.3 14.1 90 0.9 SE 9 15 5 8 1029.3 - 0.6
23/01:51pm 15.1 14.4 13.3 89 1.0 SE 9 13 5 7 1029.2 - 0.6
23/01:31pm 14.9 13.1 13.4 91 0.8 SE 15 20 8 11 1029.4 - 0.4
23/01:30pm 14.7 12.8 13.1 90 0.9 SE 15 22 8 12 1029.4 - 0.2
23/01:00pm 16.1 13.7 11.5 74 2.5 ESE 15 20 8 11 1029.5 - 0.0
23/12:30pm 16.1 14.9 10.4 69 3.0 SE 7 15 4 8 1029.9 - 0.0
23/12:00pm 16.8 15.5 11.3 70 3.0 SE 9 13 5 7 1030.4 1030.5 0.0
23/11:30am 16.1 13.9 12.1 77 2.2 ESE 15 20 8 11 1031.0 - 0.0
23/11:00am 15.2 13.9 11.2 77 2.1 SSE 9 15 5 8 1031.2 - 0.0
23/10:30am 15.5 14.7 11.7 78 2.1 SSE 7 13 4 7 1031.4 - 0.0
23/10:14am 14.9 15.2 10.9 77 2.1 CALM 0 0 0 0 1031.6 - 0.0
23/10:00am 14.7 15.1 11.1 79 1.9 CALM 0 0 0 0 1031.5 - 0.0
23/09:30am 14.1 13.8 11.4 84 1.4 E 4 11 2 6 1031.7 - 0.0
23/09:00am 13.5 13.0 11.9 90 0.9 NW 6 9 3 5 1031.8 1031.9 1.8
23/08:49am 13.0 12.3 11.9 93 0.6 NW 7 9 4 5 1031.7 - 1.8
23/08:36am 12.7 12.2 12.5 99 0.1 WNW 7 11 4 6 1031.7 - 1.8
23/08:30am 12.0 11.2 11.8 99 0.1 NW 7 11 4 6 1031.7 - 1.8
23/08:18am 11.7 10.8 11.5 99 0.1 NNW 7 9 4 5 1031.7 - 1.8
23/08:00am 11.2 11.5 11.0 99 0.1 CALM 0 0 0 0 1031.7 - 1.8
23/07:30am 10.6 9.5 10.6 100 0.0 W 7 9 4 5 1031.3 - 1.8
23/07:02am 10.0 10.1 10.0 100 0.0 CALM 0 0 0 0 1031.1 - 1.8
23/07:00am 9.9 9.9 9.9 100 0.0 CALM 0 0 0 0 1031.1 - 1.8
23/06:43am 10.0 10.0 9.9 99 0.1 CALM 0 0 0 0 1030.9 - 1.8
23/06:30am 9.8 9.8 9.7 99 0.1 CALM 0 4 0 2 1030.5 - 1.8
23/06:11am 10.2 9.1 10.0 99 0.1 WNW 6 7 3 4 1030.5 - 1.8
23/06:00am 10.2 8.6 10.2 100 0.0 WNW 9 11 5 6 1030.4 1030.5 1.8
23/05:30am 10.1 10.2 10.1 100 0.0 CALM 0 0 0 0 1030.3 - 1.8
23/05:00am 10.0 8.7 10.0 100 0.0 W 7 9 4 5 1030.0 - 1.8
23/04:30am 9.9 8.6 9.9 100 0.0 NW 7 9 4 5 1030.0 - 1.8
23/04:00am 9.9 9.9 9.8 99 0.1 CALM 0 0 0 0 1029.8 - 1.8
23/03:30am 10.3 9.0 10.1 99 0.1 SW 7 9 4 5 1029.7 - 1.8
23/03:00am 10.9 9.8 10.7 99 0.1 NW 7 9 4 5 1030.1 1030.2 1.8
23/02:53am 11.0 9.9 10.8 99 0.1 WNW 7 9 4 5 1030.1 - 1.8
23/02:30am 11.0 11.3 10.8 99 0.1 CALM 0 0 0 0 1030.2 - 1.8
23/02:00am 11.1 10.1 10.9 99 0.1 N 7 11 4 6 1030.3 - 1.8
23/01:59am 11.1 10.1 10.9 99 0.1 N 7 11 4 6 1030.4 - 1.8
23/01:30am 10.9 10.8 10.7 99 0.1 WSW 2 7 1 4 1030.6 - 1.8
23/01:00am 11.0 11.3 10.8 99 0.1 CALM 0 7 0 4 1030.8 - 1.8
23/12:30am 10.8 9.3 10.6 99 0.1 SSW 9 11 5 6 1030.8 - 1.8
23/12:00am 10.8 8.9 10.6 99 0.1 SSW 11 13 6 7 1030.9 1031.0 1.8
 
Date/Time
EST
Temp
°C
App
Temp
°C
Dew
Point
Rel
Hum
%
Delta-T
°C
Wind Press
QNH
hPa
Press
MSL
hPa
Rain
since 9 am
mm
Dir
 
Spd
km/h
Gust
km/h
Spd
kts
Gust
kts
22/11:30pm 11.2 9.1 11.0 99 0.1 SSW 13 17 7 9 1030.9 - 1.8
22/11:00pm 11.2 9.1 11.0 99 0.1 SSW 13 17 7 9 1031.1 - 1.8
22/10:30pm 11.4 9.3 11.2 99 0.1 SSW 13 17 7 9 1031.3 - 1.8
22/10:00pm 11.2 9.1 11.0 99 0.1 SW 13 15 7 8 1031.3 - 1.8
22/09:30pm 10.9 8.3 10.7 99 0.1 SSW 15 19 8 10 1031.3 - 1.8
22/09:00pm 11.1 8.6 10.9 99 0.1 SSW 15 19 8 10 1031.2 1031.3 1.8
22/08:30pm 11.4 8.9 11.2 99 0.1 SSW 15 17 8 9 1031.3 - 1.8
22/08:00pm 11.8 9.8 11.6 99 0.1 SSW 13 15 7 8 1031.2 - 1.8
22/07:30pm 11.8 9.9 11.8 100 0.0 SSW 13 15 7 8 1031.1 - 1.8
22/07:00pm 11.6 9.6 11.6 100 0.0 SSW 13 17 7 9 1031.0 - 1.8
22/06:58pm 11.6 10.0 11.6 100 0.0 SSW 11 17 6 9 1031.0 - 1.8
22/06:48pm 11.3 10.0 11.3 100 0.0 SSW 9 13 5 7 1030.9 - 1.8
22/06:30pm 11.0 9.6 10.8 99 0.1 SSW 9 11 5 6 1030.8 - 1.6
22/06:03pm 11.6 10.3 11.4 99 0.1 S 9 13 5 7 1030.5 - 1.6
22/06:00pm 11.6 10.0 11.4 99 0.1 S 11 15 6 8 1030.5 1030.6 1.6
22/05:43pm 11.8 10.2 11.6 99 0.1 S 11 15 6 8 1030.5 - 1.6
22/05:30pm 11.9 10.7 11.7 99 0.1 S 9 13 5 7 1030.4 - 1.6
22/05:18pm 12.1 10.6 11.9 99 0.1 S 11 17 6 9 1030.3 - 1.6
22/05:09pm 12.3 10.5 12.1 99 0.1 S 13 20 7 11 1030.2 - 1.6
22/05:00pm 12.4 9.9 12.2 99 0.1 S 17 24 9 13 1030.2 - 1.6
22/04:46pm 12.7 9.5 11.9 95 0.4 SSE 20 26 11 14 1030.1 - 1.4
22/04:39pm 13.2 10.1 12.3 94 0.5 SSE 20 26 11 14 1030.1 - 1.4
22/04:30pm 13.5 12.2 12.6 94 0.5 SE 11 15 6 8 1029.9 - 1.4
22/04:28pm 13.4 12.0 12.3 93 0.6 SE 11 15 6 8 1029.9 - 1.4
22/04:06pm 14.0 10.9 11.5 85 1.3 SSE 19 22 10 12 1029.8 - 1.2
22/04:00pm 14.1 11.1 11.8 86 1.2 SSE 19 24 10 13 1029.8 - 1.2
22/03:41pm 14.2 11.8 12.6 90 0.9 SSE 17 22 9 12 1029.7 - 1.2
22/03:30pm 13.6 12.1 13.1 97 0.3 SSE 13 19 7 10 1029.7 - 1.2
22/03:17pm 13.5 11.1 12.6 94 0.5 SE 17 24 9 13 1029.7 - 1.2
22/03:08pm 13.4 9.6 11.3 87 1.1 SSE 22 30 12 16 1029.8 - 1.2
22/03:00pm 15.1 11.8 11.5 79 1.9 SSE 20 30 11 16 1029.7 1029.8 1.2
22/02:30pm 14.5 11.5 11.8 84 1.5 S 19 24 10 13 1029.9 - 1.2
22/02:00pm 13.9 11.3 11.9 88 1.1 SE 17 22 9 12 1030.0 - 1.2
22/01:46pm 14.4 11.6 11.4 82 1.6 S 17 24 9 13 1030.1 - 1.2
22/01:30pm 14.4 11.8 12.1 86 1.3 S 17 22 9 12 1030.2 - 1.2
22/01:19pm 13.8 11.7 12.4 91 0.8 S 15 19 8 10 1030.4 - 1.2
22/01:00pm 13.2 11.5 12.4 95 0.4 SSE 13 20 7 11 1030.7 - 1.0
22/12:58pm 13.3 11.2 12.4 94 0.5 SE 15 24 8 13 1030.7 - 1.0
22/12:53pm 13.1 9.9 11.8 92 0.7 SE 20 30 11 16 1030.8 - 0.8
22/12:30pm 14.8 11.3 11.0 78 2.0 S 20 26 11 14 1030.9 - 0.6
22/12:00pm 15.3 13.2 11.1 76 2.2 SE 13 20 7 11 1031.3 1031.4 0.6
22/11:30am 14.1 11.9 10.9 81 1.7 SSE 13 17 7 9 1031.9 - 0.6
22/11:00am 13.8 11.8 11.5 86 1.2 SE 13 19 7 10 1032.1 - 0.6
22/10:30am 14.1 12.4 12.5 90 0.9 SW 13 17 7 9 1032.4 - 0.6
22/10:00am 12.7 11.6 12.1 96 0.3 SE 9 15 5 8 1032.7 - 0.6
22/09:45am 13.4 11.2 10.9 85 1.3 SE 13 19 7 10 1032.7 - 0.0
22/09:30am 13.7 11.4 10.5 81 1.7 S 13 17 7 9 1032.5 - 0.0
22/09:00am 13.8 12.0 12.0 89 1.0 S 13 20 7 11 1032.4 1032.5 0.8
22/08:30am 11.7 10.5 11.7 100 0.0 SSW 9 15 5 8 1032.4 - 0.8
22/08:00am 9.6 9.2 9.6 100 0.0 NNW 2 7 1 4 1032.1 - 0.8
22/07:30am 7.8 6.2 7.8 100 0.0 NW 6 7 3 4 1031.8 - 0.8
22/07:00am 6.4 5.6 6.4 100 0.0 CALM 0 0 0 0 1031.4 - 0.8
22/06:30am 6.3 5.5 6.3 100 0.0 CALM 0 0 0 0 1031.1 - 0.8
22/06:00am 6.5 5.7 6.5 100 0.0 CALM 0 0 0 0 1030.9 1031.0 0.8
22/05:30am 6.5 5.7 6.4 99 0.0 CALM 0 0 0 0 1030.6 - 0.8
22/05:00am 6.6 5.8 6.5 99 0.0 CALM 0 0 0 0 1030.6 - 0.8
22/04:30am 7.7 5.8 7.6 99 0.0 WSW 7 7 4 4 1030.4 - 0.8
22/04:00am 7.9 7.4 7.8 99 0.0 CALM 0 0 0 0 1030.3 - 0.8
22/03:30am 7.8 5.2 7.7 99 0.0 SW 11 13 6 7 1030.3 - 0.8
22/03:00am 9.1 6.4 9.0 99 0.0 SW 13 13 7 7 1030.3 1030.4 0.8
22/02:30am 8.7 5.9 8.6 99 0.0 SW 13 15 7 8 1030.5 - 0.8
22/02:07am 9.5 7.3 9.4 99 0.0 SSW 11 13 6 7 1030.6 - 0.8
22/02:00am 9.9 7.8 9.8 99 0.1 S 11 13 6 7 1030.7 - 0.8
22/01:49am 10.0 7.6 10.0 100 0.0 S 13 15 7 8 1030.8 - 0.8
22/01:30am 8.6 5.8 8.5 99 0.0 SW 13 15 7 8 1030.8 - 0.6
22/01:00am 9.4 6.8 9.3 99 0.0 SW 13 15 7 8 1031.1 - 0.6
22/12:30am 9.9 7.8 9.8 99 0.1 SW 11 13 6 7 1031.2 - 0.6
22/12:00am 10.2 8.2 10.0 99 0.1 SSW 11 13 6 7 1031.2 1031.3 0.4
 
Date/Time
EST
Temp
°C
App
Temp
°C
Dew
Point
Rel
Hum
%
Delta-T
°C
Wind Press
QNH
hPa
Press
MSL
hPa
Rain
since 9 am
mm
Dir
 
Spd
km/h
Gust
km/h
Spd
kts
Gust
kts
21/11:30pm 8.9 6.2 8.8 99 0.0 SSW 13 13 7 7 1031.1 - 0.4
21/11:00pm 10.4 7.7 10.2 99 0.1 SSW 15 19 8 10 1031.0 - 0.4
21/10:30pm 9.1 6.0 9.0 99 0.0 SW 15 17 8 9 1031.0 - 0.4
21/10:00pm 9.5 7.3 9.2 98 0.1 SSW 11 15 6 8 1031.0 - 0.4
21/09:30pm 10.3 8.3 10.1 99 0.1 SSW 11 15 6 8 1031.2 - 0.4
21/09:00pm 10.3 8.3 10.0 98 0.2 SW 11 13 6 7 1030.9 1031.0 0.4
21/08:30pm 10.7 8.4 10.4 98 0.2 SSW 13 19 7 10 1030.8 - 0.4
21/08:00pm 10.7 8.4 10.5 99 0.1 SW 13 17 7 9 1030.7 - 0.4
21/07:30pm 9.8 7.2 9.3 97 0.2 SW 13 15 7 8 1030.5 - 0.4
21/07:00pm 11.0 8.2 10.1 94 0.5 SSW 15 19 8 10 1030.2 - 0.4
21/06:30pm 10.4 8.4 8.8 90 0.8 SSW 9 11 5 6 1030.0 - 0.4
21/06:00pm 11.5 9.4 9.8 89 0.9 S 11 13 6 7 1029.7 1029.8 0.4
21/05:30pm 12.3 10.6 9.9 85 1.2 S 9 13 5 7 1029.4 - 0.4
21/05:00pm 13.3 11.3 10.1 81 1.7 SSE 11 15 6 8 1029.0 - 0.4
21/04:30pm 13.5 11.6 10.5 82 1.6 SSE 11 15 6 8 1028.7 - 0.4
21/04:00pm 13.9 11.2 10.3 79 1.9 SE 15 19 8 10 1028.5 - 0.4
21/03:30pm 14.1 11.4 10.5 79 1.9 ESE 15 19 8 10 1028.3 - 0.4
21/02:30pm 14.3 10.7 9.7 74 2.4 SE 19 24 10 13 1028.2 - 0.4
21/02:00pm 14.7 11.5 9.9 73 2.5 S 17 24 9 13 1028.2 - 0.4
21/01:30pm 14.0 11.1 9.6 75 2.3 SSE 15 24 8 13 1028.4 - 0.4
21/01:00pm 14.2 11.2 9.4 73 2.5 S 15 24 8 13 1028.8 - 0.4
21/12:30pm 13.5 11.1 10.1 80 1.8 SSE 13 20 7 11 1029.2 - 0.4
21/12:00pm 13.3 11.5 11.0 86 1.2 S 11 17 6 9 1029.6 1029.7 0.4
21/11:30am 12.9 10.3 10.8 87 1.1 S 15 20 8 11 1029.8 - 0.4
21/11:00am 13.0 11.6 12.1 94 0.5 SSW 11 20 6 11 1030.0 - 0.4
21/10:30am 11.8 10.6 11.6 99 0.1 WSW 9 17 5 9 1030.1 - 0.4
21/10:26am 11.4 10.1 11.2 99 0.1 WSW 9 11 5 6 1030.2 - 0.4
21/10:00am 10.2 8.9 10.0 99 0.1 N 7 9 4 5 1030.4 - 0.2
21/09:30am 10.0 8.3 9.9 99 0.1 NW 9 11 5 6 1030.1 - 0.2
21/09:00am 9.5 7.7 9.4 99 0.0 NW 9 11 5 6 1030.1 1030.2 2.0
21/08:30am 9.2 7.7 9.1 99 0.0 N 7 11 4 6 1030.0 - 1.4
21/08:11am 9.0 7.4 8.9 99 0.0 N 7 11 4 6 1029.7 - 1.2
21/08:00am 9.1 7.2 9.0 99 0.0 NNW 9 11 5 6 1029.6 - 1.2
21/07:30am 9.1 7.7 9.0 99 0.0 WNW 6 7 3 4 1029.3 - 1.2
21/07:10am 8.9 7.3 8.8 99 0.0 WNW 7 9 4 5 1029.1 - 1.2
21/07:00am 8.9 7.3 8.8 99 0.0 NW 7 9 4 5 1029.1 - 1.2
21/06:39am 8.9 8.6 8.8 99 0.0 CALM 0 0 0 0 1028.8 - 1.2
21/06:30am 9.0 8.3 8.7 98 0.1 W 2 6 1 3 1028.8 - 1.0
21/06:22am 9.0 7.4 8.7 98 0.1 SW 7 11 4 6 1028.7 - 1.0
21/06:07am 9.2 6.4 8.4 95 0.4 SSW 13 20 7 11 1028.5 - 0.6
21/06:00am 9.3 6.8 8.4 94 0.4 SW 11 17 6 9 1028.4 1028.5 0.6
21/05:30am 9.1 5.9 8.6 97 0.2 SSW 15 19 8 10 1028.2 - 0.6
21/05:11am 9.3 6.2 8.7 96 0.3 SSW 15 20 8 11 1028.2 - 0.6
21/05:00am 9.4 7.8 8.8 96 0.3 SSW 7 15 4 8 1028.1 - 0.6
21/04:37am 8.9 8.0 7.7 92 0.6 NNW 2 6 1 3 1028.0 - 0.2
21/04:30am 8.8 7.4 7.4 91 0.7 NW 4 7 2 4 1027.8 - 0.0
21/04:00am 9.9 7.9 8.8 93 0.5 SSW 9 15 5 8 1027.7 - 0.0
21/03:30am 8.3 5.9 7.1 92 0.6 WNW 9 11 5 6 1027.6 - 0.0
21/03:00am 8.3 7.3 7.2 93 0.5 WNW 2 7 1 4 1027.4 1027.5 0.0
21/02:30am 7.9 5.0 6.7 92 0.6 WNW 11 13 6 7 1027.3 - 0.0
21/02:00am 7.6 5.1 6.5 93 0.5 NNW 9 11 5 6 1027.6 - 0.0
21/01:30am 7.8 4.5 6.6 92 0.6 W 13 15 7 8 1027.6 - 0.0
21/01:00am 7.2 5.0 6.1 93 0.5 WNW 7 9 4 5 1027.8 - 0.0
21/12:30am 7.4 5.2 6.0 91 0.6 W 7 11 4 6 1027.7 - 0.0
21/12:00am 8.5 5.6 6.5 87 0.9 WSW 11 13 6 7 1027.6 1027.7 0.0
 
Date/Time
EST
Temp
°C
App
Temp
°C
Dew
Point
Rel
Hum
%
Delta-T
°C
Wind Press
QNH
hPa
Press
MSL
hPa
Rain
since 9 am
mm
Dir
 
Spd
km/h
Gust
km/h
Spd
kts
Gust
kts
20/11:30pm 8.3 5.5 6.9 91 0.7 W 11 13 6 7 1027.8 - 0.0

Other Formats:

Comma delimited format used in spreadsheet applications
http://www.bom.gov.au/fwo/IDN60801/IDN60801.94750.axf

JavaScript Object Notation format (JSON) in row-major order
http://www.bom.gov.au/fwo/IDN60801/IDN60801.94750.json